Time;durP1;ratioP1;P1;durP2;ratioP2;P2;SDS_P1;SDS_P2;PMS_P1;PMS_P2;Temp;Humidity;BMP_temperature;BMP_pressure;BME280_temperature;BME280_humidity;BME280_pressure;Samples;Min_cycle;Max_cycle;Signal;HPM_P1;HPM_P2
2024/01/09 00:00:34;;;;;;;13.70;5.90;;;;;;;-14.02;63.66;101047.30;105788;1254;70483;-73
2024/01/09 00:03:01;;;;;;;12.30;5.10;;;;;;;-14.10;63.66;101049.59;105772;1255;71352;-74
2024/01/09 00:05:30;;;;;;;14.30;5.60;;;;;;;-14.15;63.54;101056.66;106096;1254;59658;-74
2024/01/09 00:07:58;;;;;;;13.40;6.30;;;;;;;-14.16;63.60;101062.79;106060;1254;59605;-75
2024/01/09 00:10:26;;;;;;;13.60;6.80;;;;;;;-14.19;63.35;101061.89;106878;1257;71214;-75
2024/01/09 00:12:53;;;;;;;13.60;6.00;;;;;;;-14.17;63.85;101063.98;106515;1257;68826;-73
2024/01/09 00:15:20;;;;;;;11.40;6.40;;;;;;;-14.14;63.74;101064.00;106124;1254;71279;-76
2024/01/09 00:17:48;;;;;;;12.00;6.10;;;;;;;-14.10;63.52;101069.85;105984;1254;61148;-75
2024/01/09 00:20:16;;;;;;;15.50;7.00;;;;;;;-14.07;63.30;101071.75;106461;1260;59651;-74
2024/01/09 00:22:44;;;;;;;15.30;6.70;;;;;;;-14.06;63.51;101072.11;107135;1254;73178;-74
2024/01/09 00:25:11;;;;;;;14.30;6.30;;;;;;;-14.08;63.68;101071.23;108496;1253;68728;-74
2024/01/09 00:27:38;;;;;;;16.00;7.20;;;;;;;-14.23;63.75;101080.58;107588;1256;71107;-75
2024/01/09 00:30:07;;;;;;;14.70;6.90;;;;;;;-14.40;63.61;101082.73;106009;1257;60610;-74
2024/01/09 00:32:34;;;;;;;14.10;6.30;;;;;;;-14.42;63.49;101089.50;105963;1254;59768;-74
2024/01/09 00:35:02;;;;;;;12.60;5.90;;;;;;;-14.40;63.37;101092.42;105933;1254;73127;-73
2024/01/09 00:37:29;;;;;;;16.40;7.40;;;;;;;-14.36;63.14;101094.52;105927;1253;67717;-73
2024/01/09 00:39:56;;;;;;;14.80;7.40;;;;;;;-14.38;62.75;101103.69;105903;1254;72667;-73
2024/01/09 00:42:24;;;;;;;13.10;5.80;;;;;;;-14.39;63.26;101101.80;105619;1254;59727;-74
2024/01/09 00:44:51;;;;;;;14.70;6.40;;;;;;;-14.37;62.92;101099.27;105896;1254;60067;-71
2024/01/09 00:47:18;;;;;;;15.90;6.10;;;;;;;-14.39;62.94;101090.23;105323;1252;71818;-73
2024/01/09 00:49:46;;;;;;;16.00;6.90;;;;;;;-14.37;62.79;101082.42;105794;1253;69287;-74
2024/01/09 00:52:13;;;;;;;14.00;6.40;;;;;;;-14.42;62.46;101079.82;105913;1257;72647;-74
2024/01/09 00:54:42;;;;;;;16.80;5.90;;;;;;;-14.51;62.13;101083.43;105901;1256;59775;-74
2024/01/09 00:57:10;;;;;;;13.40;6.30;;;;;;;-14.60;62.29;101086.39;105567;1253;59933;-74
2024/01/09 00:59:37;;;;;;;17.70;6.20;;;;;;;-14.58;62.70;101089.98;105993;1254;71987;-74
2024/01/09 01:02:04;;;;;;;14.40;6.40;;;;;;;-14.50;62.57;101090.25;105972;1254;70144;-74
2024/01/09 01:04:32;;;;;;;13.90;5.60;;;;;;;-14.40;62.92;101096.01;105944;1254;72660;-73
2024/01/09 01:06:59;;;;;;;13.30;6.00;;;;;;;-14.32;62.48;101091.70;105938;1256;59733;-75
2024/01/09 01:09:27;;;;;;;10.70;5.30;;;;;;;-14.23;62.44;101093.34;106006;1253;59971;-74
2024/01/09 01:11:54;;;;;;;12.90;5.90;;;;;;;-14.22;62.35;101098.63;105995;1253;72953;-75
2024/01/09 01:14:23;;;;;;;17.10;6.50;;;;;;;-14.28;62.10;101098.73;106026;1257;68987;-74
2024/01/09 01:16:51;;;;;;;12.40;5.30;;;;;;;-14.25;61.92;101098.25;106078;1254;71389;-74
2024/01/09 01:19:18;;;;;;;19.80;7.10;;;;;;;-14.29;61.66;101096.33;106205;1254;60425;-74
2024/01/09 01:21:46;;;;;;;13.10;5.70;;;;;;;-14.36;61.61;101100.99;107571;1254;59183;-75
2024/01/09 01:24:13;;;;;;;10.90;6.10;;;;;;;-14.40;61.65;101105.88;109174;1253;71985;-75
2024/01/09 01:26:41;;;;;;;11.40;6.10;;;;;;;-14.36;61.79;101112.06;107860;1254;68692;-75
2024/01/09 01:29:08;;;;;;;15.70;7.70;;;;;;;-14.41;61.66;101107.23;106261;1255;72430;-75
2024/01/09 01:31:35;;;;;;;13.40;6.40;;;;;;;-14.52;61.70;101107.58;106047;1257;59663;-74
2024/01/09 01:34:03;;;;;;;12.70;6.40;;;;;;;-14.57;62.00;101104.46;105936;1254;60012;-75
2024/01/09 01:36:30;;;;;;;15.50;7.00;;;;;;;-14.53;61.64;101103.48;105933;1256;70614;-74
2024/01/09 01:38:58;;;;;;;14.60;5.70;;;;;;;-14.50;61.44;101104.72;106014;1254;70299;-76
2024/01/09 01:41:26;;;;;;;14.30;7.00;;;;;;;-14.53;60.99;101105.52;105862;1254;74733;-75
2024/01/09 01:43:53;;;;;;;14.40;6.30;;;;;;;-14.54;61.29;101101.07;105846;1253;60609;-75
2024/01/09 01:46:20;;;;;;;12.20;6.10;;;;;;;-14.58;60.94;101102.25;105834;1257;60357;-75
2024/01/09 01:48:48;;;;;;;11.30;5.50;;;;;;;-14.58;61.09;101100.04;105866;1260;73641;-75
2024/01/09 01:51:15;;;;;;;12.70;6.00;;;;;;;-14.57;61.12;101104.64;105672;1254;68967;-74
2024/01/09 01:53:43;;;;;;;12.00;5.50;;;;;;;-14.57;60.71;101110.93;105887;1254;72330;-74
2024/01/09 01:56:10;;;;;;;10.60;5.00;;;;;;;-14.58;60.92;101113.47;106011;1254;60529;-74
2024/01/09 01:58:38;;;;;;;14.10;6.90;;;;;;;-14.54;61.03;101118.45;105814;1258;60382;-75
2024/01/09 02:01:05;;;;;;;11.70;5.90;;;;;;;-14.50;60.61;101117.98;105954;1254;71884;-74
2024/01/09 02:03:33;;;;;;;11.40;5.30;;;;;;;-14.51;60.80;101118.13;105865;1257;67694;-75
2024/01/09 02:06:00;;;;;;;16.00;6.80;;;;;;;-14.65;60.30;101114.90;105916;1254;73238;-77
2024/01/09 02:08:28;;;;;;;12.40;6.80;;;;;;;-14.81;60.36;101119.58;105729;1258;60610;-76
2024/01/09 02:10:56;;;;;;;13.10;5.80;;;;;;;-14.96;60.36;101119.84;106024;1253;60699;-75
2024/01/09 02:13:23;;;;;;;13.50;5.60;;;;;;;-14.98;60.43;101117.95;106077;1258;72560;-74
2024/01/09 02:15:50;;;;;;;15.40;6.00;;;;;;;-14.97;60.85;101116.25;106110;1257;68717;-76
2024/01/09 02:18:18;;;;;;;13.00;6.00;;;;;;;-14.99;60.41;101115.53;106514;1254;71413;-73
2024/01/09 02:20:46;;;;;;;13.90;5.60;;;;;;;-14.95;60.62;101118.83;108485;1254;59583;-74
2024/01/09 02:23:13;;;;;;;14.60;5.10;;;;;;;-14.90;60.61;101119.79;107995;1253;58803;-74
2024/01/09 02:25:41;;;;;;;14.50;5.60;;;;;;;-14.82;60.50;101117.18;106521;1253;72596;-74
2024/01/09 02:28:15;;;;;;;13.90;5.20;;;;;;;-14.82;60.22;101115.30;106019;1254;68694;-75
2024/01/09 02:30:43;;;;;;;16.40;6.20;;;;;;;-14.85;60.11;101116.12;106152;1254;72759;-74
2024/01/09 02:33:10;;;;;;;14.00;6.20;;;;;;;-14.80;60.24;101113.98;105935;1254;60570;-74
2024/01/09 02:35:38;;;;;;;13.90;6.00;;;;;;;-14.73;60.35;101117.15;106697;1253;60421;-73
2024/01/09 02:38:06;;;;;;;10.10;5.30;;;;;;;-14.66;60.52;101115.05;107461;1252;71483;-74
2024/01/09 02:40:33;;;;;;;32.40;11.70;;;;;;;-14.66;59.80;101112.16;108108;1255;68875;-74
2024/01/09 02:43:01;;;;;;;13.20;6.70;;;;;;;-14.64;59.92;101112.70;106376;1259;71106;-74
2024/01/09 02:45:28;;;;;;;11.60;5.20;;;;;;;-14.64;60.09;101117.46;105992;1256;60540;-74
2024/01/09 02:47:55;;;;;;;9.20;5.40;;;;;;;-14.53;60.33;101114.38;105847;1252;60345;-74
2024/01/09 02:50:23;;;;;;;12.10;5.10;;;;;;;-14.37;59.84;101111.17;105988;1253;72875;-75
2024/01/09 02:52:51;;;;;;;11.50;5.40;;;;;;;-14.28;60.09;101104.84;106003;1257;69017;-75
2024/01/09 02:55:18;;;;;;;13.10;4.50;;;;;;;-14.22;59.39;101103.23;105922;1254;72443;-75
2024/01/09 02:57:45;;;;;;;11.20;4.60;;;;;;;-14.26;58.94;101100.45;105993;1254;60857;-75
2024/01/09 03:00:13;;;;;;;12.20;5.10;;;;;;;-14.31;59.05;101105.14;105936;1254;60501;-75
2024/01/09 03:02:40;;;;;;;9.80;4.40;;;;;;;-14.24;58.72;101106.43;106016;1256;72662;-74
2024/01/09 03:05:09;;;;;;;11.00;5.00;;;;;;;-14.27;57.99;101106.40;109058;1254;68697;-74
2024/01/09 03:07:37;;;;;;;14.10;6.80;;;;;;;-14.37;58.19;101105.40;107894;1254;71395;-76
2024/01/09 03:10:06;;;;;;;11.80;5.40;;;;;;;-14.44;58.25;101103.95;106028;1254;60536;-76
2024/01/09 03:12:33;;;;;;;14.60;5.00;;;;;;;-14.48;58.20;101100.48;106422;1253;60316;-75
2024/01/09 03:15:01;;;;;;;12.40;5.30;;;;;;;-14.42;57.97;101102.78;106682;1254;72576;-74
2024/01/09 03:17:28;;;;;;;11.30;5.00;;;;;;;-14.41;58.16;101100.40;106436;1253;69054;-75
2024/01/09 03:19:55;;;;;;;13.40;5.30;;;;;;;-14.48;57.58;101103.04;108764;1253;71349;-75
2024/01/09 03:22:23;;;;;;;9.40;5.00;;;;;;;-14.54;58.03;101102.95;108221;1252;60505;-73
2024/01/09 03:24:50;;;;;;;16.30;7.30;;;;;;;-14.56;57.87;101102.77;106306;1254;60425;-75
2024/01/09 03:27:18;;;;;;;12.00;5.20;;;;;;;-14.57;57.76;101102.92;106154;1254;73805;-75
2024/01/09 03:29:45;;;;;;;11.90;4.90;;;;;;;-14.51;58.20;101101.98;106133;1254;69952;-76
2024/01/09 03:32:12;;;;;;;9.30;4.00;;;;;;;-14.49;57.79;101097.92;105882;1258;71469;-76
2024/01/09 03:34:40;;;;;;;13.00;4.90;;;;;;;-14.50;57.77;101104.02;106268;1256;60437;-75
2024/01/09 03:37:11;;;;;;;10.00;3.80;;;;;;;-14.48;57.82;101110.19;106020;1256;60371;-74
2024/01/09 03:39:38;;;;;;;11.00;5.60;;;;;;;-14.40;58.03;101106.73;105909;1253;73804;-75
2024/01/09 03:42:05;;;;;;;14.00;4.80;;;;;;;-14.44;57.41;101101.06;106001;1257;69170;-75
2024/01/09 03:44:33;;;;;;;10.30;4.50;;;;;;;-14.43;57.65;101097.49;105927;1257;70520;-75
2024/01/09 03:47:00;;;;;;;12.60;5.20;;;;;;;-14.39;57.85;101099.25;105895;1251;60872;-75
2024/01/09 03:49:28;;;;;;;10.60;4.60;;;;;;;-14.41;57.34;101102.96;105930;1253;60351;-74
2024/01/09 03:51:55;;;;;;;11.60;4.50;;;;;;;-14.50;57.08;101101.30;105957;1253;72773;-73
2024/01/09 03:54:22;;;;;;;10.00;4.70;;;;;;;-14.59;57.57;101098.15;105872;1254;70267;-75
2024/01/09 03:56:50;;;;;;;9.00;4.60;;;;;;;-14.56;57.55;101099.35;105916;1253;72496;-76
2024/01/09 03:59:17;;;;;;;11.20;4.70;;;;;;;-14.51;57.55;101104.86;106092;1253;60812;-75
2024/01/09 04:01:45;;;;;;;12.50;4.80;;;;;;;-14.46;57.55;101103.76;106008;1254;61235;-75
2024/01/09 04:04:12;;;;;;;10.00;4.40;;;;;;;-14.44;57.51;101105.98;105951;1256;73840;-75
2024/01/09 04:06:43;;;;;;;11.20;5.10;;;;;;;-14.49;57.14;101110.67;105933;1254;68615;-74
2024/01/09 04:09:11;;;;;;;14.50;4.60;;;;;;;-14.58;57.37;101111.09;105958;1254;72514;-75
2024/01/09 04:11:48;;;;;;;15.10;4.60;;;;;;;-14.59;57.67;101112.61;106016;1256;60501;-76
2024/01/09 04:14:15;;;;;;;16.20;7.00;;;;;;;-14.58;57.82;101111.60;106042;1254;60492;-74
2024/01/09 04:16:46;;;;;;;13.10;4.70;;;;;;;-14.58;57.48;101107.84;106587;1253;73895;-73
2024/01/09 04:19:13;;;;;;;8.10;3.90;;;;;;;-14.46;58.50;101106.97;108927;1254;70075;-75
2024/01/09 04:21:41;;;;;;;11.00;4.70;;;;;;;-14.38;57.87;101106.23;108076;1253;71419;-77
2024/01/09 04:24:08;;;;;;;10.50;4.10;;;;;;;-14.35;58.13;101108.32;106187;1253;60440;-77
2024/01/09 04:26:36;;;;;;;10.90;3.70;;;;;;;-14.38;58.06;101107.43;106227;1254;60485;-76
2024/01/09 04:29:03;;;;;;;10.50;4.00;;;;;;;-14.38;58.05;101104.88;105965;1256;73909;-76
2024/01/09 04:31:30;;;;;;;8.70;3.50;;;;;;;-14.31;58.33;101104.47;105890;1254;70562;-76
2024/01/09 04:33:58;;;;;;;10.30;4.30;;;;;;;-14.31;58.58;101109.05;105987;1254;71883;-76
2024/01/09 04:36:26;;;;;;;20.10;8.10;;;;;;;-14.35;58.88;101109.86;105894;1254;60555;-76
2024/01/09 04:38:53;;;;;;;13.50;4.80;;;;;;;-14.31;58.66;101110.95;105947;1254;60948;-76
2024/01/09 04:41:21;;;;;;;10.90;4.20;;;;;;;-14.24;58.56;101108.14;105873;1257;72850;-76
2024/01/09 04:43:48;;;;;;;11.70;5.60;;;;;;;-14.21;58.57;101109.04;105849;1253;70534;-76
2024/01/09 04:46:16;;;;;;;13.30;5.00;;;;;;;-14.16;58.63;101104.48;105868;1256;71335;-75
2024/01/09 04:48:43;;;;;;;13.10;5.10;;;;;;;-14.14;58.61;101101.80;105988;1253;60425;-76
2024/01/09 04:51:11;;;;;;;12.40;5.40;;;;;;;-14.16;58.58;101103.30;105943;1254;61513;-76
2024/01/09 04:53:38;;;;;;;11.40;5.30;;;;;;;-14.15;58.91;101107.06;105929;1257;74118;-76
2024/01/09 04:56:07;;;;;;;18.40;6.40;;;;;;;-14.15;58.83;101105.02;106240;1254;68971;-76
2024/01/09 04:58:34;;;;;;;11.10;5.30;;;;;;;-14.13;58.98;101100.11;106235;1253;72573;-75
2024/01/09 05:01:02;;;;;;;12.10;5.40;;;;;;;-14.11;59.10;101101.34;106050;1254;60459;-76
2024/01/09 05:03:29;;;;;;;11.10;3.70;;;;;;;-14.08;59.05;101104.43;105895;1254;60517;-77
2024/01/09 05:05:57;;;;;;;10.90;4.50;;;;;;;-14.06;58.74;101110.77;106020;1254;73826;-76
2024/01/09 05:08:25;;;;;;;13.20;4.70;;;;;;;-14.09;58.77;101105.62;106079;1254;70288;-76
2024/01/09 05:10:52;;;;;;;11.50;4.20;;;;;;;-14.08;58.90;101107.33;105990;1254;72635;-76
2024/01/09 05:13:20;;;;;;;13.00;4.10;;;;;;;-13.98;59.33;101101.83;105971;1254;61017;-76
2024/01/09 05:15:47;;;;;;;11.20;3.90;;;;;;;-13.84;59.56;101103.03;107824;1253;60409;-75
2024/01/09 05:18:15;;;;;;;9.40;4.10;;;;;;;-13.75;59.31;101103.13;108977;1254;73139;-75
2024/01/09 05:20:42;;;;;;;9.90;4.20;;;;;;;-13.67;59.35;101098.63;107525;1253;68733;-75
2024/01/09 05:23:10;;;;;;;9.70;3.70;;;;;;;-13.64;59.01;101099.67;106136;1254;72689;-77
2024/01/09 05:25:38;;;;;;;10.10;5.50;;;;;;;-13.62;59.49;101093.58;106050;1254;60484;-76
2024/01/09 05:28:06;;;;;;;13.50;4.60;;;;;;;-13.72;59.25;101096.01;106031;1253;60526;-76
2024/01/09 05:30:33;;;;;;;9.10;4.20;;;;;;;-13.79;59.53;101102.92;105976;1256;73841;-76
2024/01/09 05:33:00;;;;;;;10.30;4.20;;;;;;;-13.83;59.40;101112.07;105852;1254;68722;-76
2024/01/09 05:35:29;;;;;;;11.20;5.30;;;;;;;-13.79;59.09;101110.40;105957;1254;71710;-76
2024/01/09 05:37:56;;;;;;;9.80;4.30;;;;;;;-13.73;59.44;101114.56;106793;1254;60517;-77
2024/01/09 05:40:41;;;;;;;14.30;4.40;;;;;;;-13.68;59.29;101115.83;106461;1254;60354;-76
2024/01/09 05:43:08;;;;;;;10.00;4.20;;;;;;;-13.64;59.29;101116.20;106049;1254;72033;-77
2024/01/09 05:45:36;;;;;;;9.50;4.70;;;;;;;-13.64;59.33;101110.41;106013;1256;67859;-77
2024/01/09 05:48:04;;;;;;;9.50;4.40;;;;;;;-13.71;58.75;101109.31;105920;1254;72631;-77
2024/01/09 05:50:31;;;;;;;12.40;4.30;;;;;;;-13.77;59.36;101107.89;105960;1254;60431;-76
2024/01/09 05:53:01;;;;;;;12.10;5.10;;;;;;;-13.78;59.45;101104.30;105791;1254;60401;-77
2024/01/09 05:55:28;;;;;;;7.90;3.60;;;;;;;-13.74;59.66;101106.05;105904;1257;73839;-76
2024/01/09 05:57:56;;;;;;;8.00;4.00;;;;;;;-13.69;59.71;101101.85;105941;1253;67843;-76
2024/01/09 06:00:23;;;;;;;12.30;4.40;;;;;;;-13.69;59.24;101107.80;105945;1253;71493;-76
2024/01/09 06:02:51;;;;;;;9.30;4.70;;;;;;;-13.71;59.41;101102.33;105933;1253;60407;-74
2024/01/09 06:05:18;;;;;;;10.70;4.30;;;;;;;-13.66;59.53;101106.80;105237;1254;1002735;-75
2024/01/09 06:07:46;;;;;;;18.20;6.10;;;;;;;-13.62;59.20;101105.31;106201;1254;72602;-74
2024/01/09 06:10:14;;;;;;;11.70;5.40;;;;;;;-13.62;59.24;101108.21;107029;1256;68049;-74
2024/01/09 06:12:41;;;;;;;14.00;6.00;;;;;;;-13.57;59.52;101114.59;106533;1252;72664;-74
2024/01/09 06:15:09;;;;;;;14.30;5.40;;;;;;;-13.55;59.39;101116.98;108806;1253;59596;-74
2024/01/09 06:17:36;;;;;;;10.10;4.90;;;;;;;-13.54;59.01;101118.88;108402;1252;59198;-76
2024/01/09 06:20:05;;;;;;;14.40;6.10;;;;;;;-13.50;59.23;101125.74;106534;1254;71673;-74
2024/01/09 06:22:32;;;;;;;9.90;4.90;;;;;;;-13.47;59.22;101126.29;106093;1254;69026;-75
2024/01/09 06:24:59;;;;;;;13.20;4.90;;;;;;;-13.60;59.05;101131.75;106122;1253;71417;-74
2024/01/09 06:27:27;;;;;;;12.70;7.40;;;;;;;-13.76;59.39;101130.89;106010;1256;60302;-74
2024/01/09 06:29:54;;;;;;;14.80;5.60;;;;;;;-13.83;59.61;101133.20;105967;1253;60382;-74
2024/01/09 06:32:21;;;;;;;9.90;4.50;;;;;;;-13.73;59.84;101132.45;105917;1254;73835;-74
2024/01/09 06:34:49;;;;;;;14.20;5.70;;;;;;;-13.67;60.15;101135.42;105822;1259;69444;-75
2024/01/09 06:37:17;;;;;;;13.50;5.50;;;;;;;-13.66;60.26;101136.13;106062;1254;73451;-75
2024/01/09 06:39:44;;;;;;;13.70;6.00;;;;;;;-13.58;60.51;101133.32;106013;1253;61244;-75
2024/01/09 06:42:11;;;;;;;11.80;5.20;;;;;;;-13.41;60.92;101136.06;105885;1254;60574;-77
2024/01/09 06:44:39;;;;;;;15.30;5.40;;;;;;;-13.28;60.94;101134.81;105900;1257;72355;-75
2024/01/09 06:47:09;;;;;;;12.50;5.80;;;;;;;-13.13;61.15;101132.39;105812;1257;68991;-75
2024/01/09 06:49:37;;;;;;;10.30;5.20;;;;;;;-13.01;60.89;101136.77;105973;1253;70410;-74
2024/01/09 06:52:04;;;;;;;10.90;5.40;;;;;;;-13.00;60.77;101147.86;105997;1253;60536;-76
2024/01/09 06:54:32;;;;;;;16.50;6.10;;;;;;;-13.12;60.70;101150.30;105897;1253;60472;-77
2024/01/09 06:56:59;;;;;;;8.80;4.40;;;;;;;-13.20;61.11;101146.14;105979;1254;73919;-76
2024/01/09 06:59:27;;;;;;;11.80;5.40;;;;;;;-13.19;61.64;101144.43;105871;1253;69407;-74
2024/01/09 07:01:54;;;;;;;9.20;4.80;;;;;;;-13.07;61.76;101149.50;106017;1254;72667;-74
2024/01/09 07:04:21;;;;;;;12.60;5.20;;;;;;;-12.97;62.26;101149.25;106192;1254;60929;-76
2024/01/09 07:06:49;;;;;;;15.10;5.70;;;;;;;-12.89;62.29;101152.57;105931;1259;61846;-75
2024/01/09 07:09:18;;;;;;;11.90;5.20;;;;;;;-12.76;62.74;101150.80;106073;1252;72573;-75
2024/01/09 07:11:45;;;;;;;13.60;6.00;;;;;;;-12.61;63.22;101148.71;106399;1251;69238;-77
2024/01/09 07:14:13;;;;;;;11.20;5.50;;;;;;;-12.53;63.48;101149.28;109152;1253;71360;-75
2024/01/09 07:16:41;;;;;;;12.00;4.60;;;;;;;-12.49;63.61;101151.02;108842;1253;59976;-75
2024/01/09 07:19:09;;;;;;;11.60;4.70;;;;;;;-12.43;64.13;101156.70;106090;1257;60441;-75
2024/01/09 07:21:37;;;;;;;11.60;5.00;;;;;;;-12.36;64.38;101159.48;106141;1251;74326;-74
2024/01/09 07:24:04;;;;;;;8.50;4.70;;;;;;;-12.33;64.40;101155.58;105966;1253;70227;-75
2024/01/09 07:26:38;;;;;;;14.30;5.30;;;;;;;-12.26;64.58;101161.25;105969;1254;72674;-75
2024/01/09 07:29:05;;;;;;;11.10;5.10;;;;;;;-12.17;64.79;101164.57;105996;1256;60453;-74
2024/01/09 07:31:33;;;;;;;12.60;5.30;;;;;;;-12.09;65.23;101169.56;105874;1253;60441;-76
2024/01/09 07:34:00;;;;;;;11.10;4.60;;;;;;;-12.03;65.20;101173.70;105942;1256;74281;-75
2024/01/09 07:36:28;;;;;;;10.70;5.30;;;;;;;-12.03;65.35;101174.21;106133;1254;71034;-75
2024/01/09 07:38:55;;;;;;;12.50;5.60;;;;;;;-12.11;65.59;101176.73;106268;1254;71984;-75
2024/01/09 07:41:23;;;;;;;9.50;4.60;;;;;;;-12.21;66.03;101175.48;108382;1253;59138;-76
2024/01/09 07:43:50;;;;;;;12.30;5.10;;;;;;;-12.13;66.31;101176.20;108365;1253;60542;-74
2024/01/09 07:46:18;;;;;;;13.80;5.70;;;;;;;-11.93;66.49;101182.80;105892;1256;73158;-76
2024/01/09 07:48:45;;;;;;;7.70;4.10;;;;;;;-11.77;66.94;101180.81;105919;1254;69943;-75
2024/01/09 07:51:13;;;;;;;11.70;5.50;;;;;;;-11.70;67.51;101185.98;105931;1253;71260;-75
2024/01/09 07:53:40;;;;;;;10.30;5.60;;;;;;;-11.64;67.87;101186.02;106004;1254;60414;-75
2024/01/09 07:56:18;;;;;;;12.20;6.20;;;;;;;-11.59;68.60;101181.58;105983;1256;60983;-74
2024/01/09 07:58:45;;;;;;;12.40;5.80;;;;;;;-11.61;69.01;101177.81;106017;1256;73054;-75
2024/01/09 08:01:13;;;;;;;11.80;5.70;;;;;;;-11.59;69.52;101179.70;106029;1255;71426;-75
2024/01/09 08:03:41;;;;;;;15.10;5.70;;;;;;;-11.58;70.00;101182.61;105975;1255;72706;-74
2024/01/09 08:06:15;;;;;;;14.10;6.40;;;;;;;-11.50;70.04;101182.99;105983;1256;60456;-75
2024/01/09 08:08:42;;;;;;;10.90;6.00;;;;;;;-11.33;69.81;101184.09;106557;1254;60492;-75
2024/01/09 08:11:12;;;;;;;14.00;6.10;;;;;;;-11.26;69.91;101191.30;107506;1254;71685;-74
2024/01/09 08:13:40;;;;;;;16.70;6.90;;;;;;;-11.19;70.01;101196.43;108603;1256;72465;-75
2024/01/09 08:16:08;;;;;;;12.40;6.40;;;;;;;-11.08;70.27;101199.20;107786;1254;71479;-74
2024/01/09 08:18:37;;;;;;;15.10;7.40;;;;;;;-11.03;70.72;101203.14;106176;1255;60497;-76
2024/01/09 08:21:06;;;;;;;14.20;8.20;;;;;;;-11.00;71.16;101200.94;106043;1256;60463;-76
2024/01/09 08:23:35;;;;;;;12.50;6.10;;;;;;;-10.92;71.59;101203.00;105982;1255;73906;-76
2024/01/09 08:26:02;;;;;;;13.00;6.30;;;;;;;-10.91;71.24;101208.16;106112;1254;72423;-76
2024/01/09 08:28:30;;;;;;;16.40;6.60;;;;;;;-10.82;71.22;101201.83;105979;1254;71468;-76
2024/01/09 08:30:57;;;;;;;15.50;6.60;;;;;;;-10.72;71.12;101208.01;105969;1257;60467;-76
2024/01/09 08:33:25;;;;;;;14.60;5.90;;;;;;;-10.63;71.60;101207.67;105950;1254;60491;-75
2024/01/09 08:35:55;;;;;;;13.80;7.00;;;;;;;-10.56;71.62;101205.46;105977;1254;72138;-76
2024/01/09 08:38:22;;;;;;;12.40;7.10;;;;;;;-10.49;71.61;101207.69;106385;1253;70121;-75
2024/01/09 08:40:53;;;;;;;13.40;7.70;;;;;;;-10.44;72.22;101208.53;106122;1256;73029;-75
2024/01/09 08:43:21;;;;;;;12.60;7.20;;;;;;;-10.49;72.63;101208.38;105941;1254;61064;-75
2024/01/09 08:45:51;;;;;;;11.00;6.60;;;;;;;-10.52;72.92;101206.83;106071;1255;60428;-75
2024/01/09 08:48:22;;;;;;;17.60;8.40;;;;;;;-10.54;73.31;101210.59;105874;1254;73876;-75
2024/01/09 08:50:50;;;;;;;13.30;7.10;;;;;;;-10.50;73.27;101216.42;106124;1255;70099;-76
2024/01/09 08:53:17;;;;;;;15.00;7.10;;;;;;;-10.30;73.01;101219.48;106046;1257;72220;-76
2024/01/09 08:55:45;;;;;;;15.20;6.90;;;;;;;-10.16;73.08;101223.59;105898;1259;61811;-77
2024/01/09 08:58:12;;;;;;;13.40;6.50;;;;;;;-10.10;73.10;101226.83;105863;1257;60363;-76
2024/01/09 09:00:40;;;;;;;13.50;6.60;;;;;;;-10.11;73.06;101227.02;105843;1257;73876;-75
2024/01/09 09:03:07;;;;;;;12.80;7.20;;;;;;;-10.15;73.14;101224.61;105766;1258;69260;-75
2024/01/09 09:05:35;;;;;;;13.30;6.50;;;;;;;-10.17;73.48;101222.21;107068;1253;73529;-75
2024/01/09 09:08:04;;;;;;;11.40;6.50;;;;;;;-10.15;74.29;101222.90;106777;1254;60553;-75
2024/01/09 09:10:32;;;;;;;16.30;8.00;;;;;;;-10.10;74.95;101223.23;107698;1253;59688;-75
2024/01/09 09:12:59;;;;;;;16.20;8.30;;;;;;;-10.12;74.87;101222.71;108600;1253;74614;-76
2024/01/09 09:15:26;;;;;;;13.90;8.00;;;;;;;-10.21;74.82;101217.92;107059;1254;69255;-74
2024/01/09 09:17:54;;;;;;;14.00;6.50;;;;;;;-10.14;75.16;101214.15;106116;1253;72411;-75
2024/01/09 09:20:22;;;;;;;13.20;6.60;;;;;;;-9.96;74.97;101214.98;106092;1251;60666;-75
2024/01/09 09:22:50;;;;;;;14.00;6.40;;;;;;;-9.81;74.92;101215.14;106284;1253;60283;-75
2024/01/09 09:25:17;;;;;;;14.80;7.70;;;;;;;-9.71;74.71;101215.10;106062;1256;72520;-75
2024/01/09 09:27:45;;;;;;;14.20;7.80;;;;;;;-9.69;74.82;101211.50;105953;1254;72703;-75
2024/01/09 09:30:13;;;;;;;18.10;7.80;;;;;;;-9.70;75.19;101203.44;105793;1254;72811;-76
2024/01/09 09:32:41;;;;;;;15.70;7.60;;;;;;;-9.69;75.71;101201.55;105928;1254;60439;-75
2024/01/09 09:35:08;;;;;;;15.40;8.00;;;;;;;-9.74;75.66;101202.77;105893;1257;59841;-75
2024/01/09 09:37:36;;;;;;;15.80;7.50;;;;;;;-9.79;76.01;101207.92;106006;1254;73018;-75
2024/01/09 09:40:04;;;;;;;18.30;8.70;;;;;;;-9.81;76.02;101208.45;106107;1251;70099;-75
2024/01/09 09:42:32;;;;;;;18.60;8.90;;;;;;;-9.73;76.02;101208.26;106458;1251;72373;-75
2024/01/09 09:45:00;;;;;;;16.10;8.00;;;;;;;-9.65;75.93;101209.77;106283;1256;61181;-75
2024/01/09 09:47:28;;;;;;;15.00;8.30;;;;;;;-9.58;76.04;101210.45;106198;1251;61280;-75
2024/01/09 09:49:56;;;;;;;14.60;7.90;;;;;;;-9.46;76.70;101215.04;105703;1254;73035;-75
2024/01/09 09:53:54;;;;;;;16.20;8.30;;;;;;;-9.33;77.19;101208.11;102494;1293;601045;-76
2024/01/09 09:56:24;;;;;;;17.40;9.90;;;;;;;-9.31;77.05;101213.78;104874;1269;60440;-75
2024/01/09 09:58:52;;;;;;;15.60;8.70;;;;;;;-9.30;77.15;101208.79;105262;1260;59275;-74
2024/01/09 10:01:20;;;;;;;21.90;10.40;;;;;;;-9.31;77.21;101207.77;105460;1261;72086;-75
2024/01/09 10:04:03;;;;;;;18.00;8.00;;;;;;;-9.34;77.04;101214.83;105926;1260;71211;-76
2024/01/09 10:06:31;;;;;;;;;;;;;;;-9.23;76.69;101210.83;106691;1267;156141;-75
2024/01/09 10:08:59;;;;;;;14.40;7.50;;;;;;;-9.16;76.61;101211.30;107196;1257;59324;-74
2024/01/09 10:11:28;;;;;;;16.30;7.90;;;;;;;-9.07;76.74;101203.88;108355;1257;59129;-75
2024/01/09 10:13:56;;;;;;;17.20;9.60;;;;;;;-8.98;77.11;101201.08;106912;1257;71207;-75
2024/01/09 10:16:24;;;;;;;13.50;8.10;;;;;;;-8.98;77.11;101196.11;105528;1259;69116;-74
2024/01/09 10:18:54;;;;;;;16.40;8.00;;;;;;;-8.95;77.74;101195.75;105418;1264;73517;-76
2024/01/09 10:21:23;;;;;;;14.90;8.40;;;;;;;-8.89;77.99;101191.23;105424;1256;60414;-75
2024/01/09 10:23:50;;;;;;;11.50;6.50;;;;;;;-8.86;78.02;101190.55;105485;1263;59338;-75
2024/01/09 10:26:18;;;;;;;12.10;6.30;;;;;;;-8.92;77.57;101186.80;105600;1257;72989;-75
2024/01/09 10:28:46;;;;;;;13.80;7.80;;;;;;;-8.93;77.22;101195.90;105625;1258;72065;-75
2024/01/09 10:31:16;;;;;;;15.60;7.90;;;;;;;-8.78;77.23;101193.23;105492;1257;70648;-75
2024/01/09 10:33:43;;;;;;;14.90;7.90;;;;;;;-8.62;77.43;101192.10;105468;1258;61019;-75
2024/01/09 10:36:12;;;;;;;15.50;8.10;;;;;;;-8.52;77.28;101192.20;105609;1258;60114;-75
2024/01/09 10:38:39;;;;;;;12.10;6.20;;;;;;;-8.52;77.45;101186.86;105400;1262;71174;-75
2024/01/09 10:41:17;;;;;;;14.80;7.60;;;;;;;-8.59;77.54;101188.12;105409;1264;69899;-75
2024/01/09 10:43:50;;;;;;;18.60;9.10;;;;;;;-8.63;78.02;101182.65;105572;1260;71494;-77
2024/01/09 10:46:23;;;;;;;14.00;8.10;;;;;;;-8.63;77.99;101177.84;105414;1256;59659;-76
2024/01/09 10:48:51;;;;;;;15.10;7.70;;;;;;;-8.61;78.23;101178.34;105720;1257;60009;-75
2024/01/09 10:51:19;;;;;;;17.50;7.50;;;;;;;-8.61;78.33;101178.69;105497;1258;74877;-77
2024/01/09 10:53:47;;;;;;;15.30;7.60;;;;;;;-8.52;78.53;101172.61;105562;1262;69016;-76
2024/01/09 10:56:18;;;;;;;15.40;7.10;;;;;;;-8.34;77.95;101168.64;105622;1260;72820;-76
2024/01/09 10:58:46;;;;;;;13.90;6.40;;;;;;;-8.18;77.87;101167.13;105709;1262;59823;-76
2024/01/09 11:01:14;;;;;;;12.30;6.80;;;;;;;-8.11;77.29;101171.18;105911;1256;60936;-76
2024/01/09 11:03:42;;;;;;;12.70;7.10;;;;;;;-8.19;77.71;101166.44;105871;1256;75429;-77
2024/01/09 11:06:10;;;;;;;15.40;7.30;;;;;;;-8.23;78.00;101169.91;105912;1258;70194;-76
2024/01/09 11:08:37;;;;;;;11.80;5.90;;;;;;;-8.16;78.89;101173.13;108069;1256;70890;-76